Time;durP1;ratioP1;P1;durP2;ratioP2;P2;SDS_P1;SDS_P2;PMS_P1;PMS_P2;Temp;Humidity;BMP_temperature;BMP_pressure;BME280_temperature;BME280_humidity;BME280_pressure;Samples;Min_cycle;Max_cycle;Signal;HPM_P1;HPM_P2
2021/10/23 00:00:28;;;;;;;6.32;1.87;;;;;;;19.43;43.87;101445.16;4422552;32;20137;-69
2021/10/23 00:02:54;;;;;;;8.38;1.95;;;;;;;19.51;43.69;101443.50;4422412;32;20093;-68
2021/10/23 00:05:20;;;;;;;6.68;1.50;;;;;;;19.40;43.73;101448.97;4424421;32;20692;-69
2021/10/23 00:07:46;;;;;;;4.87;1.42;;;;;;;19.25;44.00;101450.91;4421617;32;20029;-69
2021/10/23 00:10:12;;;;;;;6.65;1.35;;;;;;;19.07;44.43;101445.25;4424151;32;20118;-68
2021/10/23 00:12:38;;;;;;;5.35;1.83;;;;;;;19.20;44.06;101443.78;4426278;32;20634;-69
2021/10/23 00:15:05;;;;;;;6.12;2.00;;;;;;;18.90;44.65;101436.25;4424054;32;20504;-68
2021/10/23 00:17:31;;;;;;;4.68;1.90;;;;;;;18.96;44.72;101437.19;4420968;32;20478;-68
2021/10/23 00:20:00;;;;;;;9.10;2.00;;;;;;;19.07;44.38;101443.19;4423109;32;20049;-68
2021/10/23 00:22:28;;;;;;;5.50;2.70;;;;;;;18.90;44.60;101436.25;4418913;32;20070;-68
2021/10/23 00:24:54;;;;;;;7.10;3.00;;;;;;;18.78;44.91;101442.16;4422716;32;20482;-69
2021/10/23 00:27:20;;;;;;;5.43;3.22;;;;;;;18.79;44.88;101438.03;4425035;32;20057;-69
2021/10/23 00:29:45;;;;;;;7.90;3.30;;;;;;;18.75;44.89;101432.50;4423886;32;20057;-68
2021/10/23 00:32:11;;;;;;;6.82;3.85;;;;;;;18.72;45.21;101435.53;4424269;32;20121;-69
2021/10/23 00:34:37;;;;;;;7.00;3.87;;;;;;;18.83;44.63;101432.94;4424977;32;20152;-69
2021/10/23 00:37:02;;;;;;;8.02;3.80;;;;;;;19.06;43.98;101429.41;4425258;32;20445;-69
2021/10/23 00:39:28;;;;;;;7.00;4.43;;;;;;;19.02;44.38;101438.13;4422588;32;20038;-69
2021/10/23 00:41:55;;;;;;;9.82;5.07;;;;;;;19.14;43.96;101427.78;4426866;32;20391;-69
2021/10/23 00:49:41;;;;;;;13.40;5.22;;;;;;;19.28;43.84;101424.28;3969941;32;15021936;-68
2021/10/23 00:52:08;;;;;;;13.02;5.68;;;;;;;19.28;43.84;101424.28;4424253;32;20100;-70
2021/10/23 00:54:35;;;;;;;11.57;6.62;;;;;;;19.11;43.82;101420.97;4418018;32;20118;-68
2021/10/23 00:57:02;;;;;;;11.32;6.10;;;;;;;18.57;45.12;101414.62;4419281;32;20464;-69
2021/10/23 00:59:29;;;;;;;15.60;6.65;;;;;;;18.41;45.16;101406.44;4421121;32;20141;-69
2021/10/23 01:01:55;;;;;;;15.27;6.55;;;;;;;18.00;46.15;101418.41;4419599;32;20076;-68
2021/10/23 01:04:22;;;;;;;13.95;6.75;;;;;;;18.01;46.35;101420.03;4416973;32;20356;-68
2021/10/23 01:06:49;;;;;;;14.73;6.90;;;;;;;18.00;46.24;101413.53;4418925;32;20026;-68
2021/10/23 01:09:16;;;;;;;15.05;6.93;;;;;;;18.06;46.25;101410.81;4422314;32;20138;-68
2021/10/23 01:11:43;;;;;;;13.68;6.30;;;;;;;18.06;46.28;101405.12;4419326;32;20069;-68
2021/10/23 01:14:12;;;;;;;11.45;6.85;;;;;;;17.82;46.43;101397.22;4421005;32;20382;-68
2021/10/23 01:16:41;;;;;;;14.32;7.12;;;;;;;17.59;47.32;101400.66;4418664;32;20057;-68
2021/10/23 01:19:09;;;;;;;14.07;7.28;;;;;;;17.81;46.90;101400.53;4418563;32;20372;-68
2021/10/23 01:21:35;;;;;;;12.15;6.50;;;;;;;17.76;46.90;101401.94;4419947;32;20116;-69
2021/10/23 01:24:03;;;;;;;17.30;7.57;;;;;;;17.72;46.64;101395.63;4416808;32;20064;-68
2021/10/23 01:26:29;;;;;;;14.35;7.00;;;;;;;17.76;46.73;101409.69;4418748;32;20059;-70
2021/10/23 01:28:54;;;;;;;15.93;6.05;;;;;;;17.85;46.27;101404.00;4419884;32;20058;-69
2021/10/23 01:31:20;;;;;;;14.13;6.95;;;;;;;17.80;46.40;101394.03;4420389;32;20110;-68
2021/10/23 01:33:46;;;;;;;14.93;7.25;;;;;;;17.76;46.40;101396.25;4415290;32;20122;-68
2021/10/23 01:36:16;;;;;;;15.55;6.80;;;;;;;17.54;46.92;101392.75;4418846;32;20074;-68
2021/10/23 01:38:43;;;;;;;13.10;6.50;;;;;;;17.52;47.08;101400.16;4414600;32;20066;-68
2021/10/23 01:41:09;;;;;;;12.37;6.35;;;;;;;17.41;47.11;101397.75;4415532;32;20070;-68
2021/10/23 01:43:35;;;;;;;11.12;6.50;;;;;;;17.26;47.61;101393.09;4413608;32;20070;-69
2021/10/23 01:46:02;;;;;;;14.32;6.55;;;;;;;17.40;46.85;101392.53;4414570;32;20683;-68
2021/10/23 01:48:28;;;;;;;12.07;5.97;;;;;;;17.41;46.99;101394.09;4431000;32;20042;-68
2021/10/23 01:50:54;;;;;;;19.92;5.82;;;;;;;17.50;46.96;101394.16;4433967;32;20416;-69
2021/10/23 01:53:20;;;;;;;13.62;5.50;;;;;;;17.43;46.92;101392.38;4433694;32;20147;-69
2021/10/23 01:55:46;;;;;;;14.48;5.40;;;;;;;17.49;46.62;101403.97;4430546;32;20074;-69
2021/10/23 01:58:13;;;;;;;11.98;5.68;;;;;;;17.63;46.31;101398.47;4434175;32;20431;-69
2021/10/23 02:00:39;;;;;;;9.68;5.25;;;;;;;18.07;45.54;101401.03;4427355;32;20052;-69
2021/10/23 02:03:05;;;;;;;16.55;5.55;;;;;;;17.97;45.73;101393.75;4423196;32;20510;-69
2021/10/23 02:05:30;;;;;;;12.40;5.68;;;;;;;17.80;45.86;101396.13;4423855;32;20083;-70
2021/10/23 02:07:56;;;;;;;14.40;5.55;;;;;;;17.98;45.64;101396.09;4425719;32;20100;-69
2021/10/23 02:10:22;;;;;;;10.27;5.05;;;;;;;17.92;45.72;101400.06;4427357;32;20075;-70
2021/10/23 02:12:48;;;;;;;12.35;4.90;;;;;;;18.05;45.40;101387.28;4422885;32;20672;-69
2021/10/23 02:15:14;;;;;;;10.77;4.65;;;;;;;17.97;45.60;101391.69;4422990;32;20450;-70
2021/10/23 02:17:40;;;;;;;10.38;4.50;;;;;;;18.11;45.29;101385.38;4423355;32;20096;-70
2021/10/23 02:20:08;;;;;;;14.32;4.75;;;;;;;18.21;45.11;101386.13;4423530;32;20349;-70
2021/10/23 02:22:36;;;;;;;9.85;5.00;;;;;;;18.16;45.42;101393.25;4425639;32;20026;-70
2021/10/23 02:25:02;;;;;;;12.00;4.45;;;;;;;18.27;45.00;101392.78;4425088;32;20033;-70
2021/10/23 02:27:28;;;;;;;7.93;4.15;;;;;;;18.09;45.28;101401.34;4425106;32;20131;-70
2021/10/23 02:29:54;;;;;;;9.32;4.35;;;;;;;18.29;44.97;101393.91;4422016;32;20262;-70
2021/10/23 02:32:20;;;;;;;7.97;3.87;;;;;;;18.36;44.87;101398.47;4424462;32;20467;-70
2021/10/23 02:34:45;;;;;;;6.62;3.65;;;;;;;18.10;45.47;101388.69;4421633;32;20474;-69
2021/10/23 02:37:11;;;;;;;7.68;3.70;;;;;;;18.17;45.24;101392.00;4423957;32;20095;-70
2021/10/23 02:39:37;;;;;;;9.68;3.60;;;;;;;18.29;45.00;101382.50;4425382;32;20388;-70
2021/10/23 02:42:03;;;;;;;9.35;3.33;;;;;;;17.97;45.78;101379.53;4423043;32;20042;-70
2021/10/23 02:44:29;;;;;;;7.80;3.42;;;;;;;18.36;45.00;101385.03;4408259;32;20056;-70
2021/10/23 02:46:55;;;;;;;9.65;3.08;;;;;;;18.39;45.16;101389.81;4424352;32;20072;-70
2021/10/23 02:49:20;;;;;;;10.77;3.75;;;;;;;18.47;44.89;101382.50;4422530;32;20030;-70
2021/10/23 02:51:46;;;;;;;9.30;3.28;;;;;;;18.34;45.22;101386.75;4426776;32;20079;-70
2021/10/23 02:54:13;;;;;;;12.85;4.50;;;;;;;18.34;45.23;101376.16;4424423;32;21130;-70
2021/10/23 02:56:39;;;;;;;7.72;3.37;;;;;;;18.24;45.58;101383.13;4420106;32;20077;-70
2021/10/23 02:59:05;;;;;;;8.80;2.83;;;;;;;18.44;45.24;101379.81;4424098;32;20055;-70
2021/10/23 03:01:31;;;;;;;9.57;3.12;;;;;;;18.25;45.42;101378.25;4404343;32;20113;-69
2021/10/23 03:03:57;;;;;;;6.03;3.25;;;;;;;18.25;45.46;101386.78;4421552;32;20300;-69
2021/10/23 03:06:23;;;;;;;9.68;3.80;;;;;;;18.32;45.32;101383.63;4422282;32;20526;-70
2021/10/23 03:08:49;;;;;;;7.15;3.08;;;;;;;18.08;45.84;101388.38;4422570;32;21427;-70
2021/10/23 03:11:14;;;;;;;11.50;3.87;;;;;;;18.16;45.66;101384.72;4421978;32;20061;-70
2021/10/23 03:13:41;;;;;;;6.80;3.87;;;;;;;18.10;46.12;101378.06;4425114;32;20101;-69
2021/10/23 03:16:09;;;;;;;9.57;3.70;;;;;;;18.03;46.25;101384.09;4422218;32;20075;-70
2021/10/23 03:18:35;;;;;;;7.30;3.37;;;;;;;18.07;46.36;101390.41;4422588;32;20126;-70
2021/10/23 03:21:00;;;;;;;6.30;3.45;;;;;;;17.91;46.62;101378.56;4422933;32;20397;-69
2021/10/23 03:23:26;;;;;;;6.57;3.35;;;;;;;17.98;46.50;101379.00;4424106;32;20115;-69
2021/10/23 03:25:52;;;;;;;6.78;3.25;;;;;;;18.01;46.52;101395.16;4424001;32;20090;-69
2021/10/23 03:28:18;;;;;;;9.40;2.97;;;;;;;17.93;46.65;101385.34;4422572;32;20044;-70
2021/10/23 03:30:43;;;;;;;6.43;2.87;;;;;;;17.71;47.04;101387.56;4420943;32;20034;-69
2021/10/23 03:33:09;;;;;;;7.95;3.15;;;;;;;17.95;46.64;101390.59;4425569;32;20090;-69
2021/10/23 03:35:35;;;;;;;5.85;3.15;;;;;;;17.78;47.00;101387.25;4420485;32;20456;-69
2021/10/23 03:38:01;;;;;;;9.15;3.72;;;;;;;17.82;47.28;101390.72;4425481;32;20381;-69
2021/10/23 03:40:27;;;;;;;8.32;3.25;;;;;;;17.84;46.95;101393.91;4423632;32;20094;-69
2021/10/23 03:42:53;;;;;;;9.13;3.37;;;;;;;17.74;47.46;101393.06;4424890;32;20033;-69
2021/10/23 03:45:19;;;;;;;8.18;2.72;;;;;;;17.72;47.56;101398.47;4416305;32;20356;-69
2021/10/23 03:47:45;;;;;;;6.57;3.40;;;;;;;18.01;46.54;101395.16;4422806;32;20818;-69
2021/10/23 03:50:11;;;;;;;7.60;3.17;;;;;;;17.85;46.87;101401.97;4421993;32;20049;-69
2021/10/23 03:52:37;;;;;;;7.45;3.10;;;;;;;18.16;46.67;101398.19;4419022;32;20074;-69
2021/10/23 03:55:04;;;;;;;6.97;2.92;;;;;;;18.10;46.48;101398.00;4422545;32;20384;-69
2021/10/23 03:57:30;;;;;;;5.93;2.97;;;;;;;18.38;46.25;101393.13;4422464;32;20041;-69
2021/10/23 03:59:56;;;;;;;6.35;3.17;;;;;;;18.36;46.02;101395.63;4422798;32;20109;-69
2021/10/23 04:02:22;;;;;;;6.15;2.78;;;;;;;18.55;45.73;101397.22;4423728;32;20161;-70
2021/10/23 04:04:48;;;;;;;8.95;3.53;;;;;;;18.81;45.36;101407.00;4422245;32;20042;-69
2021/10/23 04:07:14;;;;;;;12.80;3.28;;;;;;;18.84;45.01;101403.94;4422530;32;20077;-69
2021/10/23 04:09:40;;;;;;;8.40;3.45;;;;;;;18.78;44.85;101403.00;4409253;32;20069;-69
2021/10/23 04:12:06;;;;;;;6.75;3.20;;;;;;;18.84;45.01;101403.19;4422628;32;20101;-69
2021/10/23 04:14:31;;;;;;;6.82;3.25;;;;;;;18.71;45.24;101396.84;4423435;32;20120;-69
2021/10/23 04:16:57;;;;;;;11.90;3.45;;;;;;;18.66;45.46;101397.53;4420032;32;20044;-70
2021/10/23 04:19:23;;;;;;;8.57;3.35;;;;;;;18.75;45.20;101394.66;4420674;32;20037;-70
2021/10/23 04:21:48;;;;;;;7.82;2.90;;;;;;;18.94;44.88;101396.16;4420094;32;20430;-69
2021/10/23 04:24:14;;;;;;;7.37;2.78;;;;;;;18.94;44.80;101404.72;4423561;32;20522;-70
2021/10/23 04:26:40;;;;;;;6.75;3.25;;;;;;;18.82;45.12;101405.72;4420182;32;20119;-70
2021/10/23 04:29:07;;;;;;;6.07;3.35;;;;;;;18.92;44.77;101404.41;4420297;32;20520;-69
2021/10/23 04:31:32;;;;;;;5.60;2.90;;;;;;;19.12;44.47;101407.53;4406994;32;20071;-69
2021/10/23 04:33:59;;;;;;;4.70;3.00;;;;;;;18.95;44.80;101409.16;4424815;32;20022;-69
2021/10/23 04:36:25;;;;;;;7.40;3.15;;;;;;;19.06;44.59;101401.69;4420845;32;20081;-69
2021/10/23 04:38:51;;;;;;;8.18;3.40;;;;;;;19.07;44.37;101394.69;4420824;32;20111;-69
2021/10/23 04:41:17;;;;;;;6.00;3.15;;;;;;;19.19;44.24;101402.25;4421257;32;20099;-69
2021/10/23 04:43:43;;;;;;;7.87;3.17;;;;;;;19.06;44.08;101407.38;4423757;32;20069;-69
2021/10/23 04:46:09;;;;;;;4.45;2.80;;;;;;;19.29;43.80;101403.81;4421363;32;20092;-69
2021/10/23 04:48:35;;;;;;;6.20;3.60;;;;;;;19.19;43.76;101407.97;4419059;32;20158;-69
2021/10/23 04:51:02;;;;;;;6.80;3.25;;;;;;;19.32;43.81;101402.84;4425225;32;20316;-70
2021/10/23 04:53:27;;;;;;;9.82;3.35;;;;;;;19.45;43.60;101402.63;4422836;32;20083;-70
2021/10/23 04:55:53;;;;;;;9.35;3.05;;;;;;;19.44;43.53;101401.03;4423397;32;20073;-70
2021/10/23 04:58:19;;;;;;;5.97;2.97;;;;;;;19.43;43.51;101394.53;4419494;32;20022;-71
2021/10/23 05:00:46;;;;;;;7.35;3.00;;;;;;;19.55;43.41;101392.75;4418401;32;20393;-69
2021/10/23 05:03:11;;;;;;;6.75;3.75;;;;;;;19.37;43.65;101396.50;4419640;32;20125;-69
2021/10/23 05:05:37;;;;;;;12.55;3.60;;;;;;;19.28;43.92;101395.75;4420794;32;20087;-68
2021/10/23 05:08:03;;;;;;;8.00;3.72;;;;;;;19.48;43.56;101395.94;4420894;32;20203;-70
2021/10/23 05:10:29;;;;;;;6.75;3.10;;;;;;;19.31;43.93;101391.91;4425381;32;20060;-69
2021/10/23 05:12:55;;;;;;;8.38;3.30;;;;;;;19.37;43.71;101392.84;4418476;32;20096;-69
2021/10/23 05:15:21;;;;;;;5.35;2.95;;;;;;;19.43;43.69;101390.91;4423251;32;20034;-69
2021/10/23 05:17:48;;;;;;;7.95;3.12;;;;;;;19.36;43.51;101394.91;4419298;32;20064;-69
2021/10/23 05:20:14;;;;;;;8.25;3.15;;;;;;;19.32;43.77;101390.63;4418048;32;20070;-69
2021/10/23 05:22:39;;;;;;;8.55;2.58;;;;;;;19.27;43.78;101394.94;4424751;32;20053;-69
2021/10/23 05:25:06;;;;;;;3.37;2.53;;;;;;;19.32;43.70;101391.44;4420962;32;20068;-69
2021/10/23 05:27:32;;;;;;;6.78;2.40;;;;;;;19.25;43.99;101394.62;4421595;32;20041;-69
2021/10/23 05:29:58;;;;;;;6.15;2.90;;;;;;;19.39;43.76;101398.88;4419584;32;20026;-69
2021/10/23 05:32:24;;;;;;;6.28;2.60;;;;;;;19.46;43.55;101393.56;4423778;32;20097;-69
2021/10/23 05:34:49;;;;;;;6.82;2.85;;;;;;;19.55;43.21;101395.59;4421476;32;20072;-69
2021/10/23 05:37:16;;;;;;;5.55;2.45;;;;;;;19.52;43.47;101393.72;4421993;32;20073;-69
2021/10/23 05:39:42;;;;;;;5.00;2.50;;;;;;;19.59;43.56;101388.44;4421482;32;20109;-69
2021/10/23 05:42:08;;;;;;;6.22;2.45;;;;;;;19.63;42.95;101393.94;4427750;32;20407;-69
2021/10/23 05:44:33;;;;;;;5.12;2.22;;;;;;;19.61;43.16;101387.94;4420554;32;20060;-69
2021/10/23 05:46:59;;;;;;;4.07;2.20;;;;;;;19.52;43.39;101388.78;4419960;32;20371;-69
2021/10/23 05:49:25;;;;;;;4.95;1.70;;;;;;;19.50;43.07;101379.13;4423766;32;20090;-69
2021/10/23 05:51:51;;;;;;;3.95;2.12;;;;;;;19.38;43.05;101383.78;4424120;32;20428;-69
2021/10/23 05:54:17;;;;;;;6.62;2.00;;;;;;;19.37;43.20;101376.50;4425136;32;20148;-69
2021/10/23 05:56:42;;;;;;;6.55;1.77;;;;;;;19.21;43.32;101393.22;4422710;32;20054;-69
2021/10/23 05:59:10;;;;;;;5.90;1.80;;;;;;;19.24;43.16;101380.84;4406538;32;20101;-69
2021/10/23 06:01:38;;;;;;;6.72;1.70;;;;;;;19.24;43.39;101386.53;4422463;32;20083;-69
2021/10/23 06:04:05;;;;;;;4.57;1.80;;;;;;;19.48;42.97;101385.31;4411130;32;20396;-70
2021/10/23 06:06:30;;;;;;;5.15;1.85;;;;;;;19.10;43.60;101385.19;4423363;32;20414;-70
2021/10/23 06:08:57;;;;;;;9.15;2.17;;;;;;;18.92;43.93;101385.25;4423274;32;20481;-70
2021/10/23 06:11:23;;;;;;;4.85;1.65;;;;;;;18.87;44.00;101376.56;4428035;32;20068;-70
2021/10/23 06:13:50;;;;;;;7.22;1.67;;;;;;;18.75;44.16;101383.25;4426436;32;20144;-70
2021/10/23 06:16:16;;;;;;;7.50;1.50;;;;;;;18.82;44.03;101385.75;4419012;32;20726;-70
2021/10/23 06:18:42;;;;;;;5.22;1.10;;;;;;;18.81;43.87;101381.31;4422550;32;20053;-70
2021/10/23 06:21:08;;;;;;;4.03;1.30;;;;;;;18.69;43.93;101388.81;4424562;32;20042;-70
2021/10/23 06:23:34;;;;;;;5.18;1.40;;;;;;;18.72;44.01;101384.19;4411553;32;20029;-70
2021/10/23 06:26:00;;;;;;;5.22;1.30;;;;;;;18.72;43.95;101393.53;4420926;32;20160;-71
2021/10/23 06:28:26;;;;;;;5.00;1.15;;;;;;;18.60;44.09;101393.72;4420467;32;20056;-70
2021/10/23 06:30:52;;;;;;;3.67;1.23;;;;;;;18.70;44.06;101395.28;4426067;32;20069;-70
2021/10/23 06:33:19;;;;;;;2.85;1.15;;;;;;;18.70;44.08;101390.38;4420186;32;20137;-70
2021/10/23 06:35:46;;;;;;;4.60;1.00;;;;;;;18.85;43.90;101394.16;4422752;32;20061;-70
2021/10/23 06:38:11;;;;;;;10.40;1.87;;;;;;;18.85;43.91;101391.28;4423146;32;20416;-70
2021/10/23 06:40:37;;;;;;;15.00;2.20;;;;;;;18.77;43.97;101397.78;4426319;32;20145;-70
2021/10/23 06:43:03;;;;;;;6.53;1.73;;;;;;;18.86;43.66;101390.00;4424645;32;20037;-70
2021/10/23 06:45:29;;;;;;;4.60;1.35;;;;;;;18.75;43.98;101388.94;4425617;32;20057;-70
2021/10/23 06:47:56;;;;;;;4.15;1.40;;;;;;;18.63;44.27;101390.72;4422752;32;20569;-70
2021/10/23 06:50:23;;;;;;;4.90;1.30;;;;;;;18.42;44.68;101388.06;4421723;32;20038;-70
2021/10/23 06:52:49;;;;;;;5.55;1.70;;;;;;;18.67;44.30;101387.69;4425873;32;20029;-70
2021/10/23 06:55:15;;;;;;;3.85;1.25;;;;;;;18.55;44.44;101383.75;4427466;32;20125;-70
2021/10/23 06:57:41;;;;;;;3.47;1.55;;;;;;;18.79;44.12;101387.50;4421844;32;20081;-70
2021/10/23 07:00:08;;;;;;;3.30;1.52;;;;;;;18.63;44.20;101387.88;4425125;32;20050;-70
2021/10/23 07:02:40;;;;;;;4.03;1.30;;;;;;;18.64;44.27;101385.78;4420486;32;20021;-70
2021/10/23 07:05:10;;;;;;;5.07;2.08;;;;;;;18.94;43.75;101390.47;4421501;32;20130;-70
2021/10/23 07:07:36;;;;;;;7.18;1.60;;;;;;;18.81;44.29;101396.34;4421690;32;20066;-70
2021/10/23 07:10:03;;;;;;;5.45;1.27;;;;;;;18.58;44.17;101382.00;4424699;32;20034;-70
2021/10/23 07:12:29;;;;;;;3.50;1.42;;;;;;;18.51;44.68;101394.53;4423313;32;20072;-70
2021/10/23 07:14:56;;;;;;;6.53;1.27;;;;;;;18.61;43.88;101384.69;4423082;32;20446;-70
2021/10/23 07:17:21;;;;;;;3.37;1.33;;;;;;;18.60;44.20;101391.69;4421611;32;20056;-70
2021/10/23 07:19:47;;;;;;;7.03;1.52;;;;;;;18.72;44.22;101395.59;4422241;32;20097;-70
2021/10/23 07:22:13;;;;;;;3.25;1.40;;;;;;;18.85;43.47;101402.69;4423067;32;20062;-69
2021/10/23 07:24:39;;;;;;;4.05;1.02;;;;;;;18.75;43.67;101400.34;4422680;32;20034;-69
2021/10/23 07:27:05;;;;;;;5.80;1.25;;;;;;;18.99;43.39;101398.38;4424954;32;20138;-70
2021/10/23 07:29:31;;;;;;;6.20;1.10;;;;;;;18.90;43.36;101413.44;4420779;32;20143;-69
2021/10/23 07:31:58;;;;;;;3.37;1.00;;;;;;;19.01;42.95;101402.31;4418599;32;20662;-69
2021/10/23 07:34:24;;;;;;;3.30;1.00;;;;;;;19.15;42.27;101407.31;4421390;32;20073;-69
2021/10/23 07:36:50;;;;;;;5.05;1.10;;;;;;;19.15;42.62;101412.25;4419606;32;20088;-69
2021/10/23 07:39:16;;;;;;;3.95;1.27;;;;;;;19.30;42.24;101419.66;4421646;32;20078;-69
2021/10/23 07:41:42;;;;;;;5.78;1.67;;;;;;;19.27;42.09;101417.78;4421491;32;20316;-69
2021/10/23 07:44:11;;;;;;;3.45;1.30;;;;;;;19.23;42.35;101417.13;4420750;32;20089;-69
2021/10/23 07:46:37;;;;;;;6.47;1.80;;;;;;;19.58;41.79;101420.31;4419319;32;20073;-69
2021/10/23 07:49:05;;;;;;;3.50;1.40;;;;;;;19.60;41.77;101421.41;4417980;32;20442;-69
2021/10/23 07:51:32;;;;;;;4.05;1.30;;;;;;;19.57;41.82;101418.72;4421704;32;20030;-69
2021/10/23 07:53:57;;;;;;;4.62;1.27;;;;;;;19.82;40.93;101426.81;4424000;32;20101;-69
2021/10/23 07:56:23;;;;;;;2.58;0.90;;;;;;;19.60;41.03;101429.97;4420970;32;20096;-69
2021/10/23 07:58:49;;;;;;;3.62;1.10;;;;;;;19.59;40.96;101421.91;4420534;32;20415;-69
2021/10/23 08:01:16;;;;;;;7.35;1.55;;;;;;;19.60;41.18;101427.13;4420683;32;20120;-69
2021/10/23 08:03:42;;;;;;;3.47;1.30;;;;;;;20.01;40.45;101425.44;4422870;32;20472;-70
2021/10/23 08:06:08;;;;;;;6.15;1.10;;;;;;;19.97;40.36;101426.91;4406993;32;20461;-70
2021/10/23 08:08:35;;;;;;;5.53;1.33;;;;;;;20.06;40.07;101429.69;4421514;32;20069;-70
2021/10/23 08:11:01;;;;;;;3.45;0.98;;;;;;;20.21;39.84;101431.34;4424187;32;20129;-69
2021/10/23 08:13:28;;;;;;;5.87;1.10;;;;;;;20.39;39.41;101436.91;4422817;32;20025;-70
2021/10/23 08:15:54;;;;;;;2.35;1.00;;;;;;;20.68;38.85;101431.22;4422078;32;20111;-70
2021/10/23 08:18:20;;;;;;;5.28;1.25;;;;;;;21.08;38.01;101427.81;4420048;32;20069;-70
2021/10/23 08:20:46;;;;;;;3.70;0.88;;;;;;;21.38;37.30;101426.47;4422027;32;20041;-69
2021/10/23 08:23:11;;;;;;;5.97;1.20;;;;;;;21.14;37.10;101428.69;4419874;32;20018;-70
2021/10/23 08:25:38;;;;;;;5.97;1.37;;;;;;;21.17;36.82;101431.34;4420213;32;21262;-69
2021/10/23 08:28:04;;;;;;;3.58;1.10;;;;;;;21.07;37.27;101427.00;4419790;32;21172;-70
2021/10/23 08:30:31;;;;;;;4.85;1.20;;;;;;;21.02;37.21;101430.56;4418608;32;20026;-70
2021/10/23 08:32:58;;;;;;;3.03;0.80;;;;;;;20.99;37.27;101430.78;4418607;32;20065;-70
2021/10/23 08:35:24;;;;;;;6.12;1.15;;;;;;;20.86;37.51;101419.59;4419489;32;20396;-70
2021/10/23 08:37:53;;;;;;;8.10;1.08;;;;;;;20.73;37.81;101416.25;4420429;32;20041;-70
2021/10/23 08:40:20;;;;;;;4.20;1.20;;;;;;;20.70;37.57;101422.12;4423758;32;20070;-70
2021/10/23 08:42:46;;;;;;;3.05;1.12;;;;;;;20.46;38.28;101432.88;4425666;32;20057;-70
2021/10/23 08:45:14;;;;;;;7.32;1.67;;;;;;;20.61;37.90;101422.22;4418674;32;20030;-70
2021/10/23 08:47:41;;;;;;;6.37;1.20;;;;;;;20.71;38.14;101423.75;4425224;32;20107;-69
2021/10/23 08:50:11;;;;;;;3.95;1.10;;;;;;;20.91;37.72;101429.56;4419548;32;20037;-69
2021/10/23 08:52:37;;;;;;;9.45;1.12;;;;;;;20.94;37.66;101432.25;4424290;32;20400;-69
2021/10/23 08:55:05;;;;;;;2.72;1.20;;;;;;;20.87;37.60;101440.41;4420247;32;20034;-69
2021/10/23 08:57:30;;;;;;;2.53;1.15;;;;;;;21.05;37.41;101432.44;4411285;32;20046;-69
2021/10/23 08:59:56;;;;;;;5.28;1.65;;;;;;;20.99;37.47;101445.84;4425319;32;20091;-70
2021/10/23 09:02:23;;;;;;;3.50;1.17;;;;;;;21.15;37.04;101436.78;4421335;32;20073;-70
2021/10/23 09:04:50;;;;;;;4.68;1.70;;;;;;;21.64;36.68;101448.22;4423362;32;20042;-70
2021/10/23 09:07:17;;;;;;;4.57;1.17;;;;;;;21.84;36.21;101446.72;4420424;32;20034;-70
2021/10/23 09:09:47;;;;;;;3.78;1.20;;;;;;;21.64;36.33;101442.47;4422843;32;20443;-70
2021/10/23 09:12:24;;;;;;;3.15;1.05;;;;;;;22.05;35.73;101446.22;4426683;32;20501;-70
2021/10/23 09:17:33;;;;;;;2.65;1.08;;;;;;;22.34;35.32;101453.87;3957988;32;15678859;-70
2021/10/23 09:20:08;;;;;;;5.28;1.23;;;;;;;22.34;35.32;101453.87;4435182;32;20059;-70
2021/10/23 09:28:31;;;;;;;6.45;1.40;;;;;;;21.86;36.13;101432.66;3981295;32;15021862;-70
2021/10/23 09:30:57;;;;;;;6.18;1.35;;;;;;;21.86;36.13;101432.66;4440125;32;20100;-70
2021/10/23 09:33:25;;;;;;;3.53;1.40;;;;;;;20.73;37.81;101432.59;4434824;32;20109;-70
2021/10/23 09:35:55;;;;;;;3.53;1.50;;;;;;;20.52;38.48;101420.25;4436807;32;20104;-70
2021/10/23 09:38:24;;;;;;;4.18;1.37;;;;;;;20.43;38.85;101423.19;4437404;32;20042;-70
2021/10/23 09:40:51;;;;;;;4.28;1.48;;;;;;;20.95;37.89;101425.25;4441396;32;21161;-70
2021/10/23 09:43:33;;;;;;;6.32;1.90;;;;;;;21.36;37.21;101420.47;4436252;32;20100;-70
2021/10/23 09:48:50;;;;;;;7.50;1.77;;;;;;;21.97;36.61;101416.44;3999070;31;15014406;-70
2021/10/23 09:51:22;;;;;;;4.57;1.52;;;;;;;21.97;36.61;101416.44;4462771;32;20143;-70
2021/10/23 09:53:51;;;;;;;6.25;1.73;;;;;;;21.87;36.77;101412.09;4467161;32;20361;-70
2021/10/23 09:56:18;;;;;;;4.15;1.45;;;;;;;22.24;36.32;101423.78;4463853;32;20093;-71
2021/10/23 09:58:55;;;;;;;3.62;1.10;;;;;;;22.52;35.71;101419.19;4466832;32;20209;-71
2021/10/23 10:01:23;;;;;;;5.97;1.42;;;;;;;22.77;34.77;101407.69;4465064;32;20454;-71
2021/10/23 10:03:52;;;;;;;2.72;1.23;;;;;;;23.46;34.15;101398.66;4465799;32;20068;-71
2021/10/23 10:06:18;;;;;;;2.62;1.40;;;;;;;23.37;34.07;101404.59;4465002;32;20089;-70
2021/10/23 10:08:44;;;;;;;11.50;1.77;;;;;;;22.57;35.29;101406.97;4462715;32;20147;-70
2021/10/23 10:11:11;;;;;;;3.47;1.20;;;;;;;22.20;36.04;101411.75;4466290;32;20040;-70
2021/10/23 10:13:39;;;;;;;4.22;1.60;;;;;;;22.05;36.66;101400.34;4469023;32;20040;-70
2021/10/23 10:16:05;;;;;;;5.82;1.80;;;;;;;21.27;38.05;101398.44;4462527;32;20059;-70
2021/10/23 10:18:32;;;;;;;7.85;2.05;;;;;;;20.89;39.05;101401.44;4463767;32;20046;-70
2021/10/23 10:20:59;;;;;;;5.57;2.12;;;;;;;20.44;40.47;101401.12;4462743;32;20067;-71
2021/10/23 10:26:25;;;;;;;6.03;1.48;;;;;;;21.66;38.20;101401.88;3999833;31;15031589;-71
2021/10/23 10:40:44;;;;;;;6.32;2.15;;;;;;;24.36;33.89;101423.69;4001611;31;15015770;-71
2021/10/23 10:43:13;;;;;;;;;;;;;;;24.36;33.89;101423.69;4448934;32;20095;-71
2021/10/23 10:48:21;;;;;;;3.50;1.62;;;;;;;24.09;34.04;101410.00;3991671;31;15016460;-70
2021/10/23 11:01:25;;;;;;;5.85;1.50;;;;;;;23.55;35.37;101383.28;3969113;32;15114026;-71
2021/10/23 11:19:42;;;;;;;8.88;1.17;;;;;;;22.10;36.89;101382.44;3985932;31;15018791;-70
2021/10/23 11:27:31;;;;;;;5.28;1.85;;;;;;;24.04;34.23;101384.84;4007331;31;15019571;-71
2021/10/23 11:32:44;;;;;;;6.45;1.50;;;;;;;22.96;35.47;101367.94;3983269;32;15026074;-71
2021/10/23 11:35:10;;;;;;;5.82;1.73;;;;;;;22.96;35.47;101367.94;4439742;32;20041;-71
2021/10/23 11:37:37;;;;;;;6.97;1.50;;;;;;;22.67;36.01;101353.88;4442196;32;20041;-71
2021/10/23 11:48:04;;;;;;;6.25;1.33;;;;;;;23.29;35.04;101354.66;4002484;31;15018057;-71
2021/10/23 11:58:28;;;;;;;5.45;1.70;;;;;;;23.16;35.25;101336.25;3968967;32;15030856;-70
2021/10/23 12:03:41;;;;;;;6.62;1.52;;;;;;;22.78;35.86;101351.87;3983992;32;15025286;-71
2021/10/23 12:06:16;;;;;;;3.28;1.30;;;;;;;22.91;35.58;101342.84;4432411;32;20072;-71
2021/10/23 12:08:42;;;;;;;;;;;;;;;22.67;35.55;101340.31;4432894;32;20089;-71
2021/10/23 12:11:20;;;;;;;4.30;1.60;;;;;;;22.56;35.92;101348.03;4434796;32;19964;-71
2021/10/23 12:32:37;;;;;;;4.87;1.37;;;;;;;22.24;36.07;101343.50;3995481;31;15013850;-71
2021/10/23 12:35:07;;;;;;;8.85;1.33;;;;;;;22.24;36.07;101343.50;4462336;32;20471;-70
2021/10/23 12:40:32;;;;;;;7.25;1.00;;;;;;;22.04;36.16;101326.34;3956383;32;15726681;-71
2021/10/23 12:45:44;;;;;;;5.12;1.85;;;;;;;21.80;35.76;101320.03;3999850;31;15017105;-71
2021/10/23 12:50:47;;;;;;;3.85;1.10;;;;;;;21.88;35.52;101316.25;3992130;31;15017653;-71
2021/10/23 12:53:13;;;;;;;3.67;0.80;;;;;;;21.88;35.52;101316.25;4456713;32;20080;-71
2021/10/23 12:55:39;;;;;;;3.10;1.00;;;;;;;21.61;35.65;101316.66;4456300;32;20442;-71
2021/10/23 12:58:05;;;;;;;1.58;0.80;;;;;;;21.95;34.91;101307.22;4455158;32;20103;-71
2021/10/23 13:00:32;;;;;;;5.55;1.17;;;;;;;21.81;34.83;101304.44;4456606;32;20429;-71
2021/10/23 13:02:58;;;;;;;1.37;0.80;;;;;;;22.42;33.66;101303.78;4455473;32;20416;-71
2021/10/23 13:05:24;;;;;;;5.85;1.42;;;;;;;21.99;33.91;101307.00;4454693;32;20048;-70
2021/10/23 13:07:51;;;;;;;4.65;1.50;;;;;;;22.48;32.99;101295.22;4456203;32;20150;-70
2021/10/23 13:10:17;;;;;;;6.22;1.35;;;;;;;23.00;32.68;101297.53;4456630;32;20033;-70
2021/10/23 13:12:44;;;;;;;3.05;1.20;;;;;;;23.02;32.36;101289.19;4457252;32;20036;-70